sensor_id;sensor_type;location;lat;lon;timestamp;P1;durP1;ratioP1;P2;durP2;ratioP2
15818;SDS011;8010;53.986;12.106;2022-12-29T00:01:17;2.80;;;2.07;;
15818;SDS011;8010;53.986;12.106;2022-12-29T00:03:45;2.87;;;2.00;;
15818;SDS011;8010;53.986;12.106;2022-12-29T00:06:11;3.50;;;1.80;;
15818;SDS011;8010;53.986;12.106;2022-12-29T00:08:36;2.70;;;1.77;;
15818;SDS011;8010;53.986;12.106;2022-12-29T00:11:08;4.73;;;2.10;;
15818;SDS011;8010;53.986;12.106;2022-12-29T00:13:36;2.57;;;1.83;;
15818;SDS011;8010;53.986;12.106;2022-12-29T00:16:20;2.70;;;2.50;;
15818;SDS011;8010;53.986;12.106;2022-12-29T00:18:46;3.77;;;2.43;;
15818;SDS011;8010;53.986;12.106;2022-12-29T00:21:15;3.67;;;2.27;;
15818;SDS011;8010;53.986;12.106;2022-12-29T00:24:01;3.23;;;2.00;;
15818;SDS011;8010;53.986;12.106;2022-12-29T00:26:47;3.30;;;1.83;;
15818;SDS011;8010;53.986;12.106;2022-12-29T00:29:36;4.20;;;2.27;;
15818;SDS011;8010;53.986;12.106;2022-12-29T00:32:20;6.50;;;2.60;;
15818;SDS011;8010;53.986;12.106;2022-12-29T00:35:04;4.77;;;2.87;;
15818;SDS011;8010;53.986;12.106;2022-12-29T00:37:46;3.67;;;2.60;;
15818;SDS011;8010;53.986;12.106;2022-12-29T00:40:31;3.37;;;2.33;;
15818;SDS011;8010;53.986;12.106;2022-12-29T00:43:16;3.27;;;2.23;;
15818;SDS011;8010;53.986;12.106;2022-12-29T00:46:00;4.63;;;2.83;;
15818;SDS011;8010;53.986;12.106;2022-12-29T00:48:25;4.87;;;2.73;;
15818;SDS011;8010;53.986;12.106;2022-12-29T00:51:09;4.57;;;2.67;;
15818;SDS011;8010;53.986;12.106;2022-12-29T00:53:35;3.70;;;2.93;;
15818;SDS011;8010;53.986;12.106;2022-12-29T00:56:00;4.47;;;2.63;;
15818;SDS011;8010;53.986;12.106;2022-12-29T00:58:27;2.50;;;2.30;;
15818;SDS011;8010;53.986;12.106;2022-12-29T01:01:00;3.30;;;2.50;;
15818;SDS011;8010;53.986;12.106;2022-12-29T01:03:30;5.47;;;2.80;;
15818;SDS011;8010;53.986;12.106;2022-12-29T01:05:55;4.80;;;2.83;;
15818;SDS011;8010;53.986;12.106;2022-12-29T01:08:21;6.60;;;3.13;;
15818;SDS011;8010;53.986;12.106;2022-12-29T01:10:46;2.57;;;2.27;;
15818;SDS011;8010;53.986;12.106;2022-12-29T01:13:23;2.70;;;2.00;;
15818;SDS011;8010;53.986;12.106;2022-12-29T01:15:49;4.23;;;2.53;;
15818;SDS011;8010;53.986;12.106;2022-12-29T01:18:16;4.60;;;2.47;;
15818;SDS011;8010;53.986;12.106;2022-12-29T01:20:41;3.77;;;2.90;;
15818;SDS011;8010;53.986;12.106;2022-12-29T01:23:07;4.73;;;2.83;;
15818;SDS011;8010;53.986;12.106;2022-12-29T01:25:32;5.40;;;2.47;;
15818;SDS011;8010;53.986;12.106;2022-12-29T01:27:58;3.37;;;2.50;;
15818;SDS011;8010;53.986;12.106;2022-12-29T01:30:23;3.73;;;2.60;;
15818;SDS011;8010;53.986;12.106;2022-12-29T01:32:49;6.43;;;2.73;;
15818;SDS011;8010;53.986;12.106;2022-12-29T01:35:14;3.27;;;2.70;;
15818;SDS011;8010;53.986;12.106;2022-12-29T01:37:40;3.53;;;2.57;;
15818;SDS011;8010;53.986;12.106;2022-12-29T01:40:06;6.60;;;2.77;;
15818;SDS011;8010;53.986;12.106;2022-12-29T01:42:32;3.40;;;2.60;;
15818;SDS011;8010;53.986;12.106;2022-12-29T01:44:58;4.23;;;2.83;;
15818;SDS011;8010;53.986;12.106;2022-12-29T01:47:31;4.10;;;2.73;;
15818;SDS011;8010;53.986;12.106;2022-12-29T01:50:15;4.10;;;2.57;;
15818;SDS011;8010;53.986;12.106;2022-12-29T01:52:58;3.67;;;2.80;;
15818;SDS011;8010;53.986;12.106;2022-12-29T01:55:27;3.47;;;2.67;;
15818;SDS011;8010;53.986;12.106;2022-12-29T01:57:54;4.13;;;2.57;;
15818;SDS011;8010;53.986;12.106;2022-12-29T02:00:23;4.00;;;2.80;;
15818;SDS011;8010;53.986;12.106;2022-12-29T02:02:50;3.70;;;2.60;;
15818;SDS011;8010;53.986;12.106;2022-12-29T02:08:04;3.03;;;2.23;;
15818;SDS011;8010;53.986;12.106;2022-12-29T02:10:30;7.47;;;2.80;;
15818;SDS011;8010;53.986;12.106;2022-12-29T02:12:58;3.73;;;2.73;;
15818;SDS011;8010;53.986;12.106;2022-12-29T02:15:41;3.73;;;2.67;;
15818;SDS011;8010;53.986;12.106;2022-12-29T02:23:53;3.30;;;2.57;;
15818;SDS011;8010;53.986;12.106;2022-12-29T02:29:31;4.33;;;2.87;;
15818;SDS011;8010;53.986;12.106;2022-12-29T02:32:11;2.20;;;1.80;;
15818;SDS011;8010;53.986;12.106;2022-12-29T02:34:47;3.30;;;2.83;;
15818;SDS011;8010;53.986;12.106;2022-12-29T02:40:01;2.87;;;2.17;;
15818;SDS011;8010;53.986;12.106;2022-12-29T02:45:26;3.50;;;1.63;;
15818;SDS011;8010;53.986;12.106;2022-12-29T02:48:09;4.63;;;2.03;;
15818;SDS011;8010;53.986;12.106;2022-12-29T02:50:52;2.30;;;2.03;;
15818;SDS011;8010;53.986;12.106;2022-12-29T02:53:27;4.83;;;2.70;;
15818;SDS011;8010;53.986;12.106;2022-12-29T02:56:13;2.77;;;1.80;;
15818;SDS011;8010;53.986;12.106;2022-12-29T02:58:39;2.70;;;2.00;;
15818;SDS011;8010;53.986;12.106;2022-12-29T03:03:45;3.37;;;2.50;;
15818;SDS011;8010;53.986;12.106;2022-12-29T03:11:41;2.90;;;2.13;;
15818;SDS011;8010;53.986;12.106;2022-12-29T03:17:53;3.40;;;2.13;;
15818;SDS011;8010;53.986;12.106;2022-12-29T03:20:24;4.43;;;2.20;;
15818;SDS011;8010;53.986;12.106;2022-12-29T03:22:58;4.17;;;2.10;;
15818;SDS011;8010;53.986;12.106;2022-12-29T03:25:30;2.17;;;1.90;;
15818;SDS011;8010;53.986;12.106;2022-12-29T03:28:02;4.63;;;2.00;;
15818;SDS011;8010;53.986;12.106;2022-12-29T03:30:45;2.63;;;1.97;;
15818;SDS011;8010;53.986;12.106;2022-12-29T03:33:12;3.27;;;1.70;;
15818;SDS011;8010;53.986;12.106;2022-12-29T03:35:42;3.70;;;2.00;;
15818;SDS011;8010;53.986;12.106;2022-12-29T03:38:27;2.10;;;1.57;;
15818;SDS011;8010;53.986;12.106;2022-12-29T03:41:07;2.50;;;1.60;;
15818;SDS011;8010;53.986;12.106;2022-12-29T03:43:35;1.90;;;1.70;;
15818;SDS011;8010;53.986;12.106;2022-12-29T03:46:01;3.90;;;1.90;;
15818;SDS011;8010;53.986;12.106;2022-12-29T03:48:27;3.43;;;1.47;;
15818;SDS011;8010;53.986;12.106;2022-12-29T03:50:52;4.43;;;1.87;;
15818;SDS011;8010;53.986;12.106;2022-12-29T03:53:18;3.73;;;2.37;;
15818;SDS011;8010;53.986;12.106;2022-12-29T03:55:44;3.67;;;1.70;;
15818;SDS011;8010;53.986;12.106;2022-12-29T03:58:09;3.33;;;1.97;;
15818;SDS011;8010;53.986;12.106;2022-12-29T04:00:35;2.40;;;1.60;;
15818;SDS011;8010;53.986;12.106;2022-12-29T04:03:00;3.50;;;1.70;;
15818;SDS011;8010;53.986;12.106;2022-12-29T04:05:26;2.17;;;1.57;;
15818;SDS011;8010;53.986;12.106;2022-12-29T04:07:51;2.63;;;1.70;;
15818;SDS011;8010;53.986;12.106;2022-12-29T04:10:17;4.07;;;1.80;;
15818;SDS011;8010;53.986;12.106;2022-12-29T04:12:43;3.73;;;1.40;;
15818;SDS011;8010;53.986;12.106;2022-12-29T04:15:10;3.87;;;1.73;;
15818;SDS011;8010;53.986;12.106;2022-12-29T04:17:36;2.27;;;1.67;;
15818;SDS011;8010;53.986;12.106;2022-12-29T04:20:01;3.73;;;1.90;;
15818;SDS011;8010;53.986;12.106;2022-12-29T04:22:46;1.77;;;1.50;;
15818;SDS011;8010;53.986;12.106;2022-12-29T04:25:11;2.00;;;1.73;;
15818;SDS011;8010;53.986;12.106;2022-12-29T04:27:37;2.40;;;1.73;;
15818;SDS011;8010;53.986;12.106;2022-12-29T04:30:03;3.00;;;1.60;;
15818;SDS011;8010;53.986;12.106;2022-12-29T04:32:29;2.57;;;1.57;;
15818;SDS011;8010;53.986;12.106;2022-12-29T04:34:54;2.43;;;1.60;;
15818;SDS011;8010;53.986;12.106;2022-12-29T04:37:20;1.83;;;1.43;;
15818;SDS011;8010;53.986;12.106;2022-12-29T04:39:45;1.70;;;1.20;;
15818;SDS011;8010;53.986;12.106;2022-12-29T04:42:11;1.77;;;1.40;;
15818;SDS011;8010;53.986;12.106;2022-12-29T04:44:36;2.03;;;1.60;;
15818;SDS011;8010;53.986;12.106;2022-12-29T04:47:02;3.13;;;1.40;;
15818;SDS011;8010;53.986;12.106;2022-12-29T04:49:27;1.90;;;1.50;;
15818;SDS011;8010;53.986;12.106;2022-12-29T04:51:53;2.17;;;1.37;;
15818;SDS011;8010;53.986;12.106;2022-12-29T04:54:18;1.53;;;1.30;;
15818;SDS011;8010;53.986;12.106;2022-12-29T04:56:44;1.60;;;1.20;;
15818;SDS011;8010;53.986;12.106;2022-12-29T04:59:09;1.47;;;1.37;;
15818;SDS011;8010;53.986;12.106;2022-12-29T05:01:35;1.93;;;1.43;;
15818;SDS011;8010;53.986;12.106;2022-12-29T05:04:00;1.90;;;1.20;;
15818;SDS011;8010;53.986;12.106;2022-12-29T05:06:26;4.40;;;1.57;;
15818;SDS011;8010;53.986;12.106;2022-12-29T05:08:51;2.13;;;1.57;;
15818;SDS011;8010;53.986;12.106;2022-12-29T05:11:17;1.80;;;1.27;;
15818;SDS011;8010;53.986;12.106;2022-12-29T05:13:45;2.07;;;1.43;;
15818;SDS011;8010;53.986;12.106;2022-12-29T05:16:11;2.60;;;1.40;;
15818;SDS011;8010;53.986;12.106;2022-12-29T05:18:37;2.00;;;1.43;;
15818;SDS011;8010;53.986;12.106;2022-12-29T05:21:02;1.30;;;1.00;;
15818;SDS011;8010;53.986;12.106;2022-12-29T05:23:28;1.60;;;1.10;;
15818;SDS011;8010;53.986;12.106;2022-12-29T05:25:53;2.63;;;1.03;;
15818;SDS011;8010;53.986;12.106;2022-12-29T05:28:19;0.87;;;0.80;;
15818;SDS011;8010;53.986;12.106;2022-12-29T05:30:47;1.50;;;1.00;;
15818;SDS011;8010;53.986;12.106;2022-12-29T05:33:14;2.63;;;1.50;;
15818;SDS011;8010;53.986;12.106;2022-12-29T05:35:40;1.37;;;1.00;;
15818;SDS011;8010;53.986;12.106;2022-12-29T05:38:06;1.47;;;0.90;;
15818;SDS011;8010;53.986;12.106;2022-12-29T05:40:31;1.20;;;0.80;;
15818;SDS011;8010;53.986;12.106;2022-12-29T05:42:57;2.37;;;1.10;;
15818;SDS011;8010;53.986;12.106;2022-12-29T05:45:22;1.10;;;0.90;;
15818;SDS011;8010;53.986;12.106;2022-12-29T05:47:48;1.00;;;0.80;;
15818;SDS011;8010;53.986;12.106;2022-12-29T05:50:13;1.10;;;1.00;;
15818;SDS011;8010;53.986;12.106;2022-12-29T05:52:39;1.80;;;0.97;;
15818;SDS011;8010;53.986;12.106;2022-12-29T05:55:05;1.53;;;0.90;;
15818;SDS011;8010;53.986;12.106;2022-12-29T05:57:31;1.67;;;1.07;;
15818;SDS011;8010;53.986;12.106;2022-12-29T05:59:56;0.93;;;0.87;;
15818;SDS011;8010;53.986;12.106;2022-12-29T06:02:22;2.43;;;0.80;;
15818;SDS011;8010;53.986;12.106;2022-12-29T06:04:47;1.13;;;1.00;;
15818;SDS011;8010;53.986;12.106;2022-12-29T06:07:13;3.77;;;1.00;;
15818;SDS011;8010;53.986;12.106;2022-12-29T06:09:38;1.40;;;1.00;;
15818;SDS011;8010;53.986;12.106;2022-12-29T06:12:04;2.03;;;1.00;;
15818;SDS011;8010;53.986;12.106;2022-12-29T06:14:30;2.40;;;0.93;;
15818;SDS011;8010;53.986;12.106;2022-12-29T06:16:56;1.37;;;1.00;;
15818;SDS011;8010;53.986;12.106;2022-12-29T06:19:21;1.17;;;1.07;;
15818;SDS011;8010;53.986;12.106;2022-12-29T06:21:47;1.83;;;1.10;;
15818;SDS011;8010;53.986;12.106;2022-12-29T06:24:12;1.43;;;1.10;;
15818;SDS011;8010;53.986;12.106;2022-12-29T06:26:38;2.57;;;1.10;;
15818;SDS011;8010;53.986;12.106;2022-12-29T06:29:05;1.03;;;0.93;;
15818;SDS011;8010;53.986;12.106;2022-12-29T06:31:32;1.83;;;1.30;;
15818;SDS011;8010;53.986;12.106;2022-12-29T06:33:58;1.67;;;1.00;;
15818;SDS011;8010;53.986;12.106;2022-12-29T06:36:24;1.77;;;1.07;;
15818;SDS011;8010;53.986;12.106;2022-12-29T06:38:49;1.47;;;1.00;;
15818;SDS011;8010;53.986;12.106;2022-12-29T06:41:17;2.33;;;1.10;;
15818;SDS011;8010;53.986;12.106;2022-12-29T06:43:43;1.93;;;1.30;;
15818;SDS011;8010;53.986;12.106;2022-12-29T06:46:09;2.17;;;1.40;;
15818;SDS011;8010;53.986;12.106;2022-12-29T06:48:34;1.57;;;0.93;;
15818;SDS011;8010;53.986;12.106;2022-12-29T06:51:00;2.13;;;1.53;;
15818;SDS011;8010;53.986;12.106;2022-12-29T06:53:25;1.90;;;1.30;;
15818;SDS011;8010;53.986;12.106;2022-12-29T06:55:51;1.50;;;1.10;;
15818;SDS011;8010;53.986;12.106;2022-12-29T06:58:17;2.87;;;1.53;;
15818;SDS011;8010;53.986;12.106;2022-12-29T07:00:42;1.53;;;1.40;;
15818;SDS011;8010;53.986;12.106;2022-12-29T07:03:08;1.83;;;1.30;;
15818;SDS011;8010;53.986;12.106;2022-12-29T07:05:34;2.40;;;1.50;;
15818;SDS011;8010;53.986;12.106;2022-12-29T07:07:59;2.17;;;1.50;;
15818;SDS011;8010;53.986;12.106;2022-12-29T07:10:25;2.60;;;1.50;;
15818;SDS011;8010;53.986;12.106;2022-12-29T07:12:51;2.87;;;1.33;;
15818;SDS011;8010;53.986;12.106;2022-12-29T07:15:17;1.50;;;1.20;;
15818;SDS011;8010;53.986;12.106;2022-12-29T07:17:42;1.40;;;1.10;;
15818;SDS011;8010;53.986;12.106;2022-12-29T07:20:08;1.90;;;1.20;;
15818;SDS011;8010;53.986;12.106;2022-12-29T07:22:35;1.70;;;1.20;;
15818;SDS011;8010;53.986;12.106;2022-12-29T07:25:00;2.67;;;1.33;;
15818;SDS011;8010;53.986;12.106;2022-12-29T07:27:27;2.80;;;1.20;;
15818;SDS011;8010;53.986;12.106;2022-12-29T07:29:53;1.30;;;1.00;;
15818;SDS011;8010;53.986;12.106;2022-12-29T07:32:18;2.67;;;1.27;;
15818;SDS011;8010;53.986;12.106;2022-12-29T07:34:44;3.10;;;1.00;;
15818;SDS011;8010;53.986;12.106;2022-12-29T07:37:12;1.60;;;1.00;;
15818;SDS011;8010;53.986;12.106;2022-12-29T07:39:39;1.53;;;1.13;;
15818;SDS011;8010;53.986;12.106;2022-12-29T07:42:05;1.30;;;1.20;;
15818;SDS011;8010;53.986;12.106;2022-12-29T07:44:30;1.60;;;1.10;;
15818;SDS011;8010;53.986;12.106;2022-12-29T07:46:56;0.97;;;0.80;;
15818;SDS011;8010;53.986;12.106;2022-12-29T07:49:22;3.10;;;1.70;;
15818;SDS011;8010;53.986;12.106;2022-12-29T07:51:48;2.67;;;1.50;;
15818;SDS011;8010;53.986;12.106;2022-12-29T07:54:13;1.30;;;1.13;;
15818;SDS011;8010;53.986;12.106;2022-12-29T07:56:39;3.33;;;1.53;;
15818;SDS011;8010;53.986;12.106;2022-12-29T07:59:05;1.60;;;1.23;;
15818;SDS011;8010;53.986;12.106;2022-12-29T08:01:31;3.23;;;1.23;;
15818;SDS011;8010;53.986;12.106;2022-12-29T08:03:56;1.77;;;1.00;;
15818;SDS011;8010;53.986;12.106;2022-12-29T08:06:22;1.47;;;1.23;;
15818;SDS011;8010;53.986;12.106;2022-12-29T08:08:48;2.53;;;1.07;;
15818;SDS011;8010;53.986;12.106;2022-12-29T08:11:13;1.63;;;1.00;;
15818;SDS011;8010;53.986;12.106;2022-12-29T08:13:39;1.37;;;1.03;;
15818;SDS011;8010;53.986;12.106;2022-12-29T08:16:04;1.30;;;1.00;;
15818;SDS011;8010;53.986;12.106;2022-12-29T08:18:30;1.10;;;1.00;;
15818;SDS011;8010;53.986;12.106;2022-12-29T08:21:00;1.40;;;1.00;;
15818;SDS011;8010;53.986;12.106;2022-12-29T08:23:27;1.10;;;1.00;;
15818;SDS011;8010;53.986;12.106;2022-12-29T08:25:59;1.27;;;0.90;;
15818;SDS011;8010;53.986;12.106;2022-12-29T08:28:25;1.30;;;1.00;;
15818;SDS011;8010;53.986;12.106;2022-12-29T08:30:52;1.30;;;0.90;;
15818;SDS011;8010;53.986;12.106;2022-12-29T08:33:17;1.10;;;0.97;;
15818;SDS011;8010;53.986;12.106;2022-12-29T08:35:43;1.33;;;0.83;;
15818;SDS011;8010;53.986;12.106;2022-12-29T08:38:09;3.53;;;1.10;;
15818;SDS011;8010;53.986;12.106;2022-12-29T08:40:36;1.67;;;0.87;;
15818;SDS011;8010;53.986;12.106;2022-12-29T08:43:02;1.20;;;0.90;;
15818;SDS011;8010;53.986;12.106;2022-12-29T08:45:27;1.90;;;1.73;;
15818;SDS011;8010;53.986;12.106;2022-12-29T08:47:53;4.40;;;0.97;;
15818;SDS011;8010;53.986;12.106;2022-12-29T08:50:18;1.73;;;1.13;;
15818;SDS011;8010;53.986;12.106;2022-12-29T08:52:44;1.80;;;1.30;;
15818;SDS011;8010;53.986;12.106;2022-12-29T08:55:09;1.40;;;1.10;;
15818;SDS011;8010;53.986;12.106;2022-12-29T08:57:35;1.20;;;1.10;;
15818;SDS011;8010;53.986;12.106;2022-12-29T09:00:01;2.20;;;0.70;;
15818;SDS011;8010;53.986;12.106;2022-12-29T09:02:27;3.87;;;0.90;;
15818;SDS011;8010;53.986;12.106;2022-12-29T09:04:53;1.43;;;1.10;;
15818;SDS011;8010;53.986;12.106;2022-12-29T09:07:18;1.10;;;0.80;;
15818;SDS011;8010;53.986;12.106;2022-12-29T09:09:44;2.07;;;0.83;;
15818;SDS011;8010;53.986;12.106;2022-12-29T09:12:09;3.77;;;0.83;;
15818;SDS011;8010;53.986;12.106;2022-12-29T09:14:35;1.30;;;0.80;;
15818;SDS011;8010;53.986;12.106;2022-12-29T09:17:01;1.17;;;0.80;;
15818;SDS011;8010;53.986;12.106;2022-12-29T09:19:44;0.83;;;0.70;;
15818;SDS011;8010;53.986;12.106;2022-12-29T09:22:10;1.00;;;0.83;;
15818;SDS011;8010;53.986;12.106;2022-12-29T09:24:35;2.83;;;0.77;;
15818;SDS011;8010;53.986;12.106;2022-12-29T09:27:01;1.27;;;0.80;;
15818;SDS011;8010;53.986;12.106;2022-12-29T09:29:26;1.60;;;0.83;;
15818;SDS011;8010;53.986;12.106;2022-12-29T09:31:52;1.17;;;0.60;;
15818;SDS011;8010;53.986;12.106;2022-12-29T09:34:18;1.27;;;1.00;;
15818;SDS011;8010;53.986;12.106;2022-12-29T09:36:43;1.03;;;0.60;;
15818;SDS011;8010;53.986;12.106;2022-12-29T09:39:09;1.03;;;0.83;;
15818;SDS011;8010;53.986;12.106;2022-12-29T09:41:36;1.63;;;0.97;;
15818;SDS011;8010;53.986;12.106;2022-12-29T09:44:26;1.83;;;0.60;;
15818;SDS011;8010;53.986;12.106;2022-12-29T09:47:05;0.93;;;0.80;;
15818;SDS011;8010;53.986;12.106;2022-12-29T09:49:43;2.97;;;0.80;;
15818;SDS011;8010;53.986;12.106;2022-12-29T09:52:14;0.57;;;0.47;;
15818;SDS011;8010;53.986;12.106;2022-12-29T09:57:32;0.50;;;0.47;;
15818;SDS011;8010;53.986;12.106;2022-12-29T10:00:32;1.33;;;0.70;;
15818;SDS011;8010;53.986;12.106;2022-12-29T10:03:17;1.27;;;0.70;;
15818;SDS011;8010;53.986;12.106;2022-12-29T10:17:01;0.70;;;0.60;;
15818;SDS011;8010;53.986;12.106;2022-12-29T10:19:51;0.90;;;0.60;;
15818;SDS011;8010;53.986;12.106;2022-12-29T10:25:10;0.40;;;0.30;;
15818;SDS011;8010;53.986;12.106;2022-12-29T10:27:39;1.27;;;0.40;;
15818;SDS011;8010;53.986;12.106;2022-12-29T10:30:10;0.63;;;0.50;;
15818;SDS011;8010;53.986;12.106;2022-12-29T10:32:38;0.60;;;0.30;;
15818;SDS011;8010;53.986;12.106;2022-12-29T10:35:18;0.87;;;0.50;;
15818;SDS011;8010;53.986;12.106;2022-12-29T10:37:59;1.67;;;0.40;;
15818;SDS011;8010;53.986;12.106;2022-12-29T10:40:36;2.40;;;0.67;;
15818;SDS011;8010;53.986;12.106;2022-12-29T10:43:28;2.30;;;0.40;;
15818;SDS011;8010;53.986;12.106;2022-12-29T10:45:57;0.60;;;0.20;;
15818;SDS011;8010;53.986;12.106;2022-12-29T10:48:33;0.80;;;0.40;;
15818;SDS011;8010;53.986;12.106;2022-12-29T10:51:01;0.30;;;0.20;;
15818;SDS011;8010;53.986;12.106;2022-12-29T10:53:50;1.90;;;0.40;;
15818;SDS011;8010;53.986;12.106;2022-12-29T10:59:23;2.00;;;0.30;;
15818;SDS011;8010;53.986;12.106;2022-12-29T11:07:21;0.53;;;0.40;;
15818;SDS011;8010;53.986;12.106;2022-12-29T11:09:47;0.90;;;0.50;;
15818;SDS011;8010;53.986;12.106;2022-12-29T11:15:12;2.30;;;0.30;;
15818;SDS011;8010;53.986;12.106;2022-12-29T11:17:46;1.37;;;0.27;;
15818;SDS011;8010;53.986;12.106;2022-12-29T11:20:36;1.10;;;0.27;;
15818;SDS011;8010;53.986;12.106;2022-12-29T11:23:04;2.27;;;0.90;;
15818;SDS011;8010;53.986;12.106;2022-12-29T11:25:45;1.83;;;0.50;;
15818;SDS011;8010;53.986;12.106;2022-12-29T11:28:15;3.17;;;0.40;;
15818;SDS011;8010;53.986;12.106;2022-12-29T11:30:41;1.40;;;0.60;;
15818;SDS011;8010;53.986;12.106;2022-12-29T11:33:08;2.70;;;0.70;;
15818;SDS011;8010;53.986;12.106;2022-12-29T11:38:01;3.00;;;0.60;;
15818;SDS011;8010;53.986;12.106;2022-12-29T11:40:28;3.30;;;0.40;;
15818;SDS011;8010;53.986;12.106;2022-12-29T11:42:57;1.10;;;0.47;;
15818;SDS011;8010;53.986;12.106;2022-12-29T11:45:29;0.57;;;0.30;;
15818;SDS011;8010;53.986;12.106;2022-12-29T11:48:06;2.33;;;0.40;;
15818;SDS011;8010;53.986;12.106;2022-12-29T11:50:36;2.50;;;0.47;;
15818;SDS011;8010;53.986;12.106;2022-12-29T11:53:05;1.13;;;0.60;;
15818;SDS011;8010;53.986;12.106;2022-12-29T11:55:32;0.63;;;0.50;;
15818;SDS011;8010;53.986;12.106;2022-12-29T11:57:59;3.93;;;0.53;;
15818;SDS011;8010;53.986;12.106;2022-12-29T12:00:27;0.93;;;0.40;;
15818;SDS011;8010;53.986;12.106;2022-12-29T12:05:37;1.43;;;0.63;;
15818;SDS011;8010;53.986;12.106;2022-12-29T12:08:19;4.10;;;0.60;;
15818;SDS011;8010;53.986;12.106;2022-12-29T12:10:58;1.90;;;0.43;;
15818;SDS011;8010;53.986;12.106;2022-12-29T12:13:47;1.77;;;0.50;;
15818;SDS011;8010;53.986;12.106;2022-12-29T12:16:35;1.00;;;0.50;;
15818;SDS011;8010;53.986;12.106;2022-12-29T12:22:05;4.07;;;0.80;;
15818;SDS011;8010;53.986;12.106;2022-12-29T12:24:57;1.67;;;0.43;;
15818;SDS011;8010;53.986;12.106;2022-12-29T12:27:38;1.77;;;0.40;;
15818;SDS011;8010;53.986;12.106;2022-12-29T12:30:13;4.33;;;0.70;;
15818;SDS011;8010;53.986;12.106;2022-12-29T12:41:23;1.13;;;0.43;;
15818;SDS011;8010;53.986;12.106;2022-12-29T12:46:40;2.17;;;0.50;;
15818;SDS011;8010;53.986;12.106;2022-12-29T12:52:29;2.60;;;0.50;;
15818;SDS011;8010;53.986;12.106;2022-12-29T13:00:44;2.60;;;0.60;;
15818;SDS011;8010;53.986;12.106;2022-12-29T13:06:53;1.27;;;0.63;;
15818;SDS011;8010;53.986;12.106;2022-12-29T13:09:32;4.20;;;0.90;;
15818;SDS011;8010;53.986;12.106;2022-12-29T13:18:12;2.93;;;0.70;;
15818;SDS011;8010;53.986;12.106;2022-12-29T13:23:39;5.27;;;0.90;;
15818;SDS011;8010;53.986;12.106;2022-12-29T13:26:20;2.07;;;0.40;;
15818;SDS011;8010;53.986;12.106;2022-12-29T13:38:00;3.60;;;0.63;;
15818;SDS011;8010;53.986;12.106;2022-12-29T13:40:34;2.00;;;0.80;;
15818;SDS011;8010;53.986;12.106;2022-12-29T13:43:05;3.40;;;0.73;;
15818;SDS011;8010;53.986;12.106;2022-12-29T13:45:31;1.53;;;0.50;;
15818;SDS011;8010;53.986;12.106;2022-12-29T13:48:18;3.17;;;0.40;;
15818;SDS011;8010;53.986;12.106;2022-12-29T13:50:50;2.87;;;0.50;;
15818;SDS011;8010;53.986;12.106;2022-12-29T14:01:10;4.60;;;0.50;;
15818;SDS011;8010;53.986;12.106;2022-12-29T14:03:44;1.13;;;0.40;;
15818;SDS011;8010;53.986;12.106;2022-12-29T14:08:47;3.30;;;1.13;;
15818;SDS011;8010;53.986;12.106;2022-12-29T14:11:17;3.33;;;0.93;;
15818;SDS011;8010;53.986;12.106;2022-12-29T14:13:46;3.47;;;0.70;;
15818;SDS011;8010;53.986;12.106;2022-12-29T14:16:26;4.73;;;0.80;;
15818;SDS011;8010;53.986;12.106;2022-12-29T14:19:05;2.57;;;0.60;;
15818;SDS011;8010;53.986;12.106;2022-12-29T14:21:41;3.37;;;0.70;;
15818;SDS011;8010;53.986;12.106;2022-12-29T14:27:42;3.70;;;1.03;;
15818;SDS011;8010;53.986;12.106;2022-12-29T14:29:53;1.27;;;0.50;;
15818;SDS011;8010;53.986;12.106;2022-12-29T14:34:53;6.30;;;0.87;;
15818;SDS011;8010;53.986;12.106;2022-12-29T14:39:57;1.77;;;0.40;;
15818;SDS011;8010;53.986;12.106;2022-12-29T14:42:29;5.30;;;1.00;;
15818;SDS011;8010;53.986;12.106;2022-12-29T14:45:06;3.17;;;0.57;;
15818;SDS011;8010;53.986;12.106;2022-12-29T14:47:39;2.37;;;0.80;;
15818;SDS011;8010;53.986;12.106;2022-12-29T14:52:48;1.67;;;0.43;;
15818;SDS011;8010;53.986;12.106;2022-12-29T14:58:37;3.50;;;0.93;;
15818;SDS011;8010;53.986;12.106;2022-12-29T15:01:35;1.47;;;0.50;;
15818;SDS011;8010;53.986;12.106;2022-12-29T15:04:12;3.17;;;1.00;;
15818;SDS011;8010;53.986;12.106;2022-12-29T15:06:43;0.97;;;0.47;;
15818;SDS011;8010;53.986;12.106;2022-12-29T15:09:30;3.23;;;0.87;;
15818;SDS011;8010;53.986;12.106;2022-12-29T15:12:01;4.50;;;0.50;;
15818;SDS011;8010;53.986;12.106;2022-12-29T15:14:51;1.03;;;0.40;;
15818;SDS011;8010;53.986;12.106;2022-12-29T15:19:54;2.80;;;0.60;;
15818;SDS011;8010;53.986;12.106;2022-12-29T15:22:21;1.97;;;0.63;;
15818;SDS011;8010;53.986;12.106;2022-12-29T15:24:49;2.73;;;0.40;;
15818;SDS011;8010;53.986;12.106;2022-12-29T15:27:19;2.07;;;0.60;;
15818;SDS011;8010;53.986;12.106;2022-12-29T15:29:47;2.50;;;0.50;;
15818;SDS011;8010;53.986;12.106;2022-12-29T15:32:23;0.83;;;0.40;;
15818;SDS011;8010;53.986;12.106;2022-12-29T15:34:52;2.80;;;0.40;;
15818;SDS011;8010;53.986;12.106;2022-12-29T15:37:20;3.23;;;0.50;;
15818;SDS011;8010;53.986;12.106;2022-12-29T15:39:52;2.87;;;0.60;;
15818;SDS011;8010;53.986;12.106;2022-12-29T15:42:23;1.57;;;0.40;;
15818;SDS011;8010;53.986;12.106;2022-12-29T15:44:56;3.93;;;0.67;;
15818;SDS011;8010;53.986;12.106;2022-12-29T15:47:25;0.67;;;0.30;;
15818;SDS011;8010;53.986;12.106;2022-12-29T15:49:58;2.10;;;0.53;;
15818;SDS011;8010;53.986;12.106;2022-12-29T15:52:28;0.73;;;0.50;;
15818;SDS011;8010;53.986;12.106;2022-12-29T15:54:55;2.77;;;0.67;;
15818;SDS011;8010;53.986;12.106;2022-12-29T15:57:25;2.80;;;0.67;;
15818;SDS011;8010;53.986;12.106;2022-12-29T15:59:52;3.93;;;0.53;;
15818;SDS011;8010;53.986;12.106;2022-12-29T16:02:19;1.87;;;0.37;;
15818;SDS011;8010;53.986;12.106;2022-12-29T16:04:47;1.27;;;0.50;;
15818;SDS011;8010;53.986;12.106;2022-12-29T16:07:24;2.53;;;0.30;;
15818;SDS011;8010;53.986;12.106;2022-12-29T16:09:56;1.13;;;0.30;;
15818;SDS011;8010;53.986;12.106;2022-12-29T16:12:24;1.90;;;0.50;;
15818;SDS011;8010;53.986;12.106;2022-12-29T16:15:01;0.63;;;0.30;;
15818;SDS011;8010;53.986;12.106;2022-12-29T16:17:30;1.77;;;0.40;;
15818;SDS011;8010;53.986;12.106;2022-12-29T16:19:59;2.70;;;0.50;;
15818;SDS011;8010;53.986;12.106;2022-12-29T16:22:34;1.90;;;0.57;;
15818;SDS011;8010;53.986;12.106;2022-12-29T16:25:06;2.43;;;0.70;;
15818;SDS011;8010;53.986;12.106;2022-12-29T16:27:52;3.40;;;0.60;;
15818;SDS011;8010;53.986;12.106;2022-12-29T16:30:28;1.73;;;0.33;;
15818;SDS011;8010;53.986;12.106;2022-12-29T16:32:57;2.13;;;0.60;;
15818;SDS011;8010;53.986;12.106;2022-12-29T16:35:26;1.80;;;0.50;;
15818;SDS011;8010;53.986;12.106;2022-12-29T16:38:12;1.40;;;0.67;;
15818;SDS011;8010;53.986;12.106;2022-12-29T16:40:48;0.67;;;0.40;;
15818;SDS011;8010;53.986;12.106;2022-12-29T16:43:31;1.27;;;0.40;;
15818;SDS011;8010;53.986;12.106;2022-12-29T16:51:14;2.67;;;0.50;;
15818;SDS011;8010;53.986;12.106;2022-12-29T16:53:50;3.27;;;0.80;;
15818;SDS011;8010;53.986;12.106;2022-12-29T16:56:22;1.37;;;0.80;;
15818;SDS011;8010;53.986;12.106;2022-12-29T16:58:53;2.70;;;1.20;;
15818;SDS011;8010;53.986;12.106;2022-12-29T17:01:26;3.63;;;0.67;;
15818;SDS011;8010;53.986;12.106;2022-12-29T17:04:04;3.47;;;1.03;;
15818;SDS011;8010;53.986;12.106;2022-12-29T17:06:32;1.70;;;0.63;;
15818;SDS011;8010;53.986;12.106;2022-12-29T17:08:57;2.27;;;0.70;;
15818;SDS011;8010;53.986;12.106;2022-12-29T17:11:25;1.77;;;0.60;;
15818;SDS011;8010;53.986;12.106;2022-12-29T17:14:23;0.90;;;0.50;;
15818;SDS011;8010;53.986;12.106;2022-12-29T17:19:47;2.47;;;0.60;;
15818;SDS011;8010;53.986;12.106;2022-12-29T17:22:21;3.00;;;0.93;;
15818;SDS011;8010;53.986;12.106;2022-12-29T17:24:49;2.40;;;0.73;;
15818;SDS011;8010;53.986;12.106;2022-12-29T17:27:19;4.93;;;1.17;;
15818;SDS011;8010;53.986;12.106;2022-12-29T17:30:25;5.00;;;0.90;;